メキシコシティ の空港の天気 - METARとTAF

メキシコ・シティ国際空港 ( MMMX / MEX ) - メキシコ メキシコシティ
飛行場実況気象(Metar)
観測時間12/12 03:45 CST (12/12 09:45 UTC)
風向・風速東北東 2m/s
視程6450m
天気現象
少しの雲 雲底高度 7620m
気温9℃
湿度81%
気圧1028hPa
METARMMMX 120945Z 06003KT 4SM FEW250 09/06 A3037 NOSIG RMK 8/002 BR HZ LWR VSBY N NE
過去の天気等 Google飛行場航空写真 Wunderground天気予報

過去48時間のMETAR

飛行場予報(TAF)
発表時間: 12/11 23:45 CST (12/12 05:45 UTC)
予報対象時間: 12日0時 CST ~ 13日6時 CST
風向・風速北北東 3m/s
視程8050m
天気現象煙霧
全天の4割程度の雲 雲底高度 7620m
12日4時 CST ~ 12日8時 CST に一時的に
視程3220m
天気現象もや 煙霧
全天の4割程度の雲 雲底高度 460m
全天の8割程度の雲 雲底高度 7620m
12日12時 CST から
風向・風速南西 5m/s
視程6440m
天気現象煙霧
全天の8割程度の雲 雲底高度 7620m
12日20時 CST から
風向・風速南西 3m/s
視程8050m
天気現象煙霧
全天の8割程度の雲 雲底高度 7620m
TAF MMMX 120545Z 1206/1312 03005KT 5SM HZ SCT250 TX21/1221Z TN08/1212Z
TEMPO 1210/1214 2SM BR HZ SCT015 BKN250
FM121800 22010KT 4SM HZ BKN250
FM130200 23005KT 5SM HZ BKN250